CheckWX is a tool to help pilots better visualize weather data.  It is not intended as a substitute for an official pre-flight weather briefing.

00:07:46 UTC

KMAE METAR
Madera Municipal Airport
Madera, California, USA
Current

15 mins ago

KMAE 052353Z AUTO 15013G19KT 10SM BKN070 OVC085 14/10 A2969 RMK AO2 LTG DSNT N AND NW RAE19 SLP052 P0000 60004 T01390100 10150 20133 58014
Observed
Apr-5 @ 23:53 UTC
Wind
  • 150° at 13 KTS
  • Gusting to 19 KTS
Visibility
Flight Rules
VFR
Cloud Levels
  • Broken at 7,000' AGL
  • Overcast at 8,500' AGL
Temperature
14°C / 57°F
Dewpoint
10°C / 50°F
Humidity
77%
Altimeter
29.69" Hg
Pressure
1005.42 hPa
Current Rain
0.01"
Previous

1 hour ago

KMAE 052253Z AUTO 12009KT 10SM -RA BKN060 OVC075 13/11 A2970 RMK AO2 SLP058 P0003 T01330111
Observed
Apr-5 @ 22:53 UTC
Wind
  • 120° at 9 KTS
Visibility
Flight Rules
VFR
Conditions
Light Rain
Cloud Levels
  • Broken at 6,000' AGL
  • Overcast at 7,500' AGL
Temperature
13°C / 55°F
Dewpoint
11°C / 52°F
Humidity
88%
Altimeter
29.7" Hg
Pressure
1005.72 hPa
Current Rain
0.03"
Previous

2 hours ago

KMAE 052153Z AUTO 13013G24KT 10SM -RA OVC070 14/09 A2972 RMK AO2 PK WND 12027/2130 RAB39 SLP063 P0000 T01440094
Observed
Apr-5 @ 21:53 UTC
Wind
  • 130° at 13 KTS
  • Gusting to 24 KTS
Visibility
Flight Rules
VFR
Conditions
Light Rain
Cloud Levels
  • Overcast at 7,000' AGL
Temperature
14°C / 57°F
Dewpoint
C / 48°F
Humidity
72%
Altimeter
29.72" Hg
Pressure
1006.42 hPa
Current Rain
0.01"